Time;durP1;ratioP1;P1;durP2;ratioP2;P2;SDS_P1;SDS_P2;PMS_P1;PMS_P2;Temp;Humidity;BMP_temperature;BMP_pressure;BME280_temperature;BME280_humidity;BME280_pressure;Samples;Min_cycle;Max_cycle;Signal;HPM_P1;HPM_P2
2022/05/02 00:00:50;;;;;;;12.93;6.82;;;;;;;8.55;63.62;101440.66;2089738;28;20294;-65
2022/05/02 00:01:54;;;;;;;13.10;6.15;;;;;;;8.53;63.66;101446.22;2097579;28;20302;-65
2022/05/02 00:03:02;;;;;;;10.73;6.22;;;;;;;8.52;63.62;101436.56;2097499;28;20298;-65
2022/05/02 00:04:04;;;;;;;13.10;6.35;;;;;;;8.49;63.61;101431.69;2097814;28;20278;-65
2022/05/02 00:05:08;;;;;;;15.40;6.00;;;;;;;8.50;63.44;101435.19;2081516;28;20348;-66
2022/05/02 00:06:14;;;;;;;10.85;6.13;;;;;;;8.45;63.67;101435.09;2082668;28;20295;-66
2022/05/02 00:07:16;;;;;;;13.82;6.47;;;;;;;8.42;63.76;101427.53;2097694;28;20305;-66
2022/05/02 00:08:21;;;;;;;13.85;6.05;;;;;;;8.42;63.81;101433.75;2095545;28;20317;-66
2022/05/02 00:09:25;;;;;;;11.63;5.97;;;;;;;8.39;64.10;101430.72;2089475;28;20284;-66
2022/05/02 00:10:27;;;;;;;11.95;6.47;;;;;;;8.38;64.06;101424.53;2089394;28;20287;-66
2022/05/02 00:11:37;;;;;;;10.32;6.00;;;;;;;8.43;63.87;101432.66;2090310;28;20284;-66
2022/05/02 00:12:41;;;;;;;13.57;6.30;;;;;;;8.47;63.59;101431.13;2097022;28;20309;-66
2022/05/02 00:13:46;;;;;;;14.23;5.95;;;;;;;8.44;64.09;101428.94;2081145;28;20041;-66
2022/05/02 00:14:49;;;;;;;12.50;6.03;;;;;;;8.46;63.87;101426.03;2082168;28;20288;-65
2022/05/02 00:15:55;;;;;;;11.48;5.93;;;;;;;8.46;64.16;101429.50;2088679;28;20267;-65
2022/05/02 00:16:58;;;;;;;13.80;6.75;;;;;;;8.45;64.25;101430.56;2081017;28;20640;-65
2022/05/02 00:18:02;;;;;;;19.52;8.02;;;;;;;8.44;64.25;101434.28;2072283;28;20285;-65
2022/05/02 00:19:06;;;;;;;10.63;6.20;;;;;;;8.42;64.32;101425.69;2087532;28;20279;-65
2022/05/02 00:20:09;;;;;;;18.70;7.85;;;;;;;8.39;64.01;101426.19;2081748;28;20811;-66
2022/05/02 00:21:17;;;;;;;15.77;6.75;;;;;;;8.39;64.32;101428.88;2081335;28;20296;-66
2022/05/02 00:22:22;;;;;;;18.20;6.45;;;;;;;8.37;64.16;101433.59;2083569;28;20280;-65
2022/05/02 00:23:24;;;;;;;13.85;6.20;;;;;;;8.35;63.95;101435.72;2096482;28;20702;-65
2022/05/02 00:24:27;;;;;;;12.60;6.47;;;;;;;8.34;64.08;101434.09;2090193;28;20279;-65
2022/05/02 00:25:31;;;;;;;13.32;5.90;;;;;;;8.30;63.91;101435.63;2088963;28;20306;-65
2022/05/02 00:26:33;;;;;;;10.23;5.85;;;;;;;8.26;63.62;101431.78;2080867;28;20284;-65
2022/05/02 00:27:41;;;;;;;10.32;5.90;;;;;;;8.25;63.96;101433.66;2089317;28;20287;-65
2022/05/02 00:28:48;;;;;;;15.98;6.68;;;;;;;8.23;64.14;101432.28;2081051;28;20284;-65
2022/05/02 00:29:52;;;;;;;14.10;6.18;;;;;;;8.21;64.20;101431.72;2064262;28;20363;-65
2022/05/02 00:30:56;;;;;;;12.23;6.47;;;;;;;8.22;63.90;101427.97;2066392;28;20281;-65
2022/05/02 00:32:02;;;;;;;14.20;6.15;;;;;;;8.23;63.94;101432.28;2065814;28;20305;-65
2022/05/02 00:33:05;;;;;;;16.45;6.75;;;;;;;8.17;63.85;101425.22;2073685;28;20284;-65
2022/05/02 00:34:07;;;;;;;15.48;6.80;;;;;;;8.18;64.08;101429.53;2073016;28;20731;-66
2022/05/02 00:35:10;;;;;;;13.02;6.22;;;;;;;8.17;64.31;101425.22;2081155;28;20284;-65
2022/05/02 00:36:12;;;;;;;13.27;6.55;;;;;;;8.15;64.18;101424.66;2081233;28;20295;-65
2022/05/02 00:37:18;;;;;;;12.75;6.70;;;;;;;8.09;64.16;101427.22;2082548;28;20343;-65
2022/05/02 00:38:23;;;;;;;13.98;6.47;;;;;;;8.05;64.20;101426.09;2095928;28;20290;-65
2022/05/02 00:39:27;;;;;;;15.32;6.45;;;;;;;8.06;64.26;101424.22;2080659;28;20672;-65
2022/05/02 00:40:29;;;;;;;13.10;6.75;;;;;;;8.04;64.45;101432.50;2081692;28;20641;-65
2022/05/02 00:41:34;;;;;;;13.88;6.72;;;;;;;8.03;64.19;101425.50;2088817;28;20783;-65
2022/05/02 00:42:40;;;;;;;12.93;6.97;;;;;;;7.97;64.02;101426.47;2089169;28;20284;-65
2022/05/02 00:43:45;;;;;;;13.30;6.30;;;;;;;7.97;64.32;101423.78;2085731;28;20288;-65
2022/05/02 00:44:51;;;;;;;16.38;6.78;;;;;;;7.90;64.73;101421.25;2074917;28;20289;-65
2022/05/02 00:45:59;;;;;;;12.40;6.43;;;;;;;7.89;64.76;101422.31;2074378;28;20796;-65
2022/05/02 00:47:02;;;;;;;14.60;6.35;;;;;;;7.86;64.72;101427.34;2074289;28;20340;-65
2022/05/02 00:48:07;;;;;;;14.13;7.07;;;;;;;7.87;65.24;101424.41;2089615;28;20300;-65
2022/05/02 00:49:11;;;;;;;11.63;6.13;;;;;;;7.91;65.12;101424.75;2089494;28;20287;-65
2022/05/02 00:50:16;;;;;;;15.25;6.45;;;;;;;7.93;64.70;101419.97;2081156;28;20276;-65
2022/05/02 00:51:20;;;;;;;13.32;6.10;;;;;;;7.93;64.70;101422.66;2089928;28;20755;-65
2022/05/02 00:52:25;;;;;;;12.10;6.05;;;;;;;7.95;64.68;101417.88;2093650;28;20287;-65
2022/05/02 00:53:28;;;;;;;12.35;6.43;;;;;;;7.96;64.39;101416.00;2088627;28;20652;-65
2022/05/02 00:54:37;;;;;;;13.73;6.65;;;;;;;7.96;64.49;101421.34;2080693;28;20284;-65
2022/05/02 00:55:42;;;;;;;17.13;7.45;;;;;;;7.95;63.90;101419.75;2081948;28;20315;-65
2022/05/02 00:56:49;;;;;;;14.68;6.47;;;;;;;7.92;64.29;101418.34;2088576;28;20284;-65
2022/05/02 00:57:58;;;;;;;12.90;6.50;;;;;;;7.88;64.17;101420.69;2087368;28;20346;-65
2022/05/02 00:59:05;;;;;;;12.43;7.68;;;;;;;7.85;63.88;101425.72;2096854;28;20290;-65
2022/05/02 01:00:09;;;;;;;14.15;6.95;;;;;;;7.79;64.13;101414.09;2097056;28;20286;-65
2022/05/02 01:01:14;;;;;;;12.70;7.18;;;;;;;7.81;64.07;101413.84;2089759;28;20793;-65
2022/05/02 01:02:18;;;;;;;20.05;7.70;;;;;;;7.79;64.15;101413.28;2081115;28;20300;-65
2022/05/02 01:03:24;;;;;;;14.63;7.05;;;;;;;7.77;64.15;101407.34;2080693;28;20295;-65
2022/05/02 01:04:28;;;;;;;14.32;7.30;;;;;;;7.72;64.20;101409.91;2080808;28;20284;-65
2022/05/02 01:07:09;;;;;;;17.02;7.30;;;;;;;7.66;64.20;101417.06;2089798;28;20283;-65
2022/05/02 01:08:13;;;;;;;12.07;7.10;;;;;;;7.65;64.25;101405.50;2094905;28;20301;-65
2022/05/02 01:09:20;;;;;;;12.82;7.43;;;;;;;7.66;64.36;101409.84;2095231;28;20301;-65
2022/05/02 01:10:28;;;;;;;13.27;7.32;;;;;;;7.65;64.07;101413.53;2088824;28;20813;-66
2022/05/02 01:11:33;;;;;;;15.25;7.72;;;;;;;7.67;64.39;101410.66;2083201;28;20037;-66
2022/05/02 01:12:37;;;;;;;15.85;7.28;;;;;;;7.69;64.67;101413.06;2088950;28;20315;-66
2022/05/02 01:13:47;;;;;;;17.13;7.35;;;;;;;7.68;64.57;101416.81;2089430;28;20298;-66
2022/05/02 01:14:52;;;;;;;16.55;7.82;;;;;;;7.65;64.75;101416.22;2094262;28;20280;-66
2022/05/02 01:15:59;;;;;;;16.13;7.47;;;;;;;7.65;64.85;101416.22;2092800;28;20305;-65
2022/05/02 01:17:07;;;;;;;15.40;6.78;;;;;;;7.69;65.05;101411.19;2096590;28;20083;-66
2022/05/02 01:18:08;;;;;;;14.00;7.50;;;;;;;7.72;64.69;101412.59;2089442;28;20351;-66
2022/05/02 01:19:13;;;;;;;14.57;7.15;;;;;;;7.72;65.03;101421.44;2088251;28;20279;-65
2022/05/02 01:20:18;;;;;;;15.25;7.10;;;;;;;7.73;64.89;101419.59;2089372;28;20294;-65
2022/05/02 01:21:29;;;;;;;16.73;6.60;;;;;;;7.73;65.03;101406.22;2072347;28;20293;-66
2022/05/02 01:22:34;;;;;;;14.23;6.60;;;;;;;7.73;65.02;101411.56;2076749;28;20281;-65
2022/05/02 01:23:39;;;;;;;13.10;7.05;;;;;;;7.73;64.90;101416.91;2097241;28;20422;-66
2022/05/02 01:24:46;;;;;;;15.02;7.00;;;;;;;7.73;64.69;101408.88;2097703;28;20298;-66
2022/05/02 01:25:52;;;;;;;13.90;7.07;;;;;;;7.72;64.57;101404.56;2095927;28;20343;-65
2022/05/02 01:26:55;;;;;;;14.63;6.38;;;;;;;7.72;64.44;101405.38;2081322;28;20719;-65
2022/05/02 01:28:00;;;;;;;14.80;6.90;;;;;;;7.70;64.58;101407.50;2089432;28;20279;-65
2022/05/02 01:29:06;;;;;;;13.20;6.72;;;;;;;7.68;64.84;101408.78;2088509;28;20734;-65
2022/05/02 01:30:11;;;;;;;12.02;7.28;;;;;;;7.68;64.83;101408.78;2080553;28;20282;-65
2022/05/02 01:31:17;;;;;;;14.00;6.90;;;;;;;7.64;64.41;101406.56;2081539;28;20288;-65
2022/05/02 01:32:21;;;;;;;11.75;6.60;;;;;;;7.66;64.55;101411.72;2089819;28;20279;-65
2022/05/02 01:33:24;;;;;;;15.68;7.35;;;;;;;7.64;64.94;101401.22;2095825;28;20275;-66
2022/05/02 01:34:31;;;;;;;15.07;6.82;;;;;;;7.63;64.73;101404.16;2096897;28;20286;-66
2022/05/02 01:35:34;;;;;;;12.05;6.88;;;;;;;7.63;64.61;101407.63;2088443;28;20285;-66
2022/05/02 01:36:37;;;;;;;13.27;6.95;;;;;;;7.62;64.32;101411.34;2097074;28;20289;-66
2022/05/02 01:37:42;;;;;;;14.18;7.40;;;;;;;7.53;64.39;101407.41;2096475;28;20274;-66
2022/05/02 01:38:45;;;;;;;20.02;8.07;;;;;;;7.47;64.75;101405.72;2097097;28;20283;-66
2022/05/02 01:39:50;;;;;;;16.35;7.85;;;;;;;7.46;64.59;101400.59;2097044;28;20332;-66
2022/05/02 01:40:54;;;;;;;17.08;8.05;;;;;;;7.42;64.78;101406.41;2097032;28;20290;-66
2022/05/02 01:42:02;;;;;;;16.75;7.63;;;;;;;7.39;64.54;101400.72;2088561;28;20276;-66
2022/05/02 01:43:06;;;;;;;14.93;7.82;;;;;;;7.39;64.74;101411.41;2081443;28;21527;-66
2022/05/02 01:44:09;;;;;;;16.42;7.50;;;;;;;7.40;64.82;101410.38;2080295;28;20300;-65
2022/05/02 01:45:12;;;;;;;14.43;7.75;;;;;;;7.41;64.85;101409.34;2080668;28;20287;-66
2022/05/02 01:46:15;;;;;;;15.43;7.90;;;;;;;7.41;64.84;101404.78;2079772;28;20764;-66
2022/05/02 01:47:20;;;;;;;15.15;7.57;;;;;;;7.41;64.65;101407.47;2087189;28;20382;-66
2022/05/02 01:48:24;;;;;;;16.63;7.50;;;;;;;7.41;64.34;101403.97;2088593;28;20287;-66
2022/05/02 01:49:29;;;;;;;14.32;7.60;;;;;;;7.43;64.34;101399.19;2088630;28;20406;-66
2022/05/02 01:50:36;;;;;;;16.67;7.35;;;;;;;7.40;64.36;101395.13;2088245;28;20295;-66
2022/05/02 01:51:39;;;;;;;19.85;7.43;;;;;;;7.43;64.36;101404.53;2081349;28;20287;-66
2022/05/02 01:52:44;;;;;;;17.98;7.55;;;;;;;7.46;64.61;101403.25;2072793;28;20293;-66
2022/05/02 01:53:48;;;;;;;16.38;7.43;;;;;;;7.44;64.35;101403.50;2076182;28;20288;-66
2022/05/02 01:54:52;;;;;;;14.50;7.45;;;;;;;7.46;64.19;101412.09;2080022;28;20292;-66
2022/05/02 01:55:58;;;;;;;16.15;7.20;;;;;;;7.47;63.98;101405.72;2074404;28;20293;-66
2022/05/02 01:57:02;;;;;;;13.88;7.60;;;;;;;7.46;64.00;101406.75;2088431;28;20280;-66
2022/05/02 01:58:07;;;;;;;13.13;7.35;;;;;;;7.47;64.02;101403.03;2089833;28;20286;-66
2022/05/02 01:59:13;;;;;;;13.13;7.72;;;;;;;7.53;64.19;101402.06;2081447;28;20280;-66
2022/05/02 02:00:16;;;;;;;14.25;7.60;;;;;;;7.55;64.23;101405.31;2073414;28;20288;-66
2022/05/02 02:01:19;;;;;;;12.63;6.63;;;;;;;7.59;64.42;101406.47;2087996;28;20282;-66
2022/05/02 02:02:26;;;;;;;11.15;6.70;;;;;;;7.61;64.05;101404.38;2089291;28;20639;-66
2022/05/02 02:03:31;;;;;;;11.82;6.88;;;;;;;7.64;64.02;101405.78;2088458;28;20287;-66
2022/05/02 02:05:58;;;;;;;11.60;6.28;;;;;;;7.66;64.45;101401.81;2075719;28;20671;-66
2022/05/02 02:07:00;;;;;;;10.38;6.43;;;;;;;7.68;64.61;101411.44;2075572;28;20280;-66
2022/05/02 02:08:03;;;;;;;11.90;5.88;;;;;;;7.65;64.71;101408.19;2080271;28;20649;-66
2022/05/02 02:09:10;;;;;;;11.48;6.80;;;;;;;7.65;64.56;101400.16;2088255;28;20287;-66
2022/05/02 02:10:19;;;;;;;12.55;6.60;;;;;;;7.64;64.46;101406.56;2088499;28;20363;-66
2022/05/02 02:11:24;;;;;;;11.02;6.07;;;;;;;7.65;64.24;101407.38;2090745;28;20334;-66
2022/05/02 02:12:30;;;;;;;15.82;6.82;;;;;;;7.64;64.39;101403.91;2080368;28;20284;-66
2022/05/02 02:13:38;;;;;;;14.32;6.70;;;;;;;7.63;64.49;101398.81;2072582;28;20291;-65
2022/05/02 02:14:42;;;;;;;10.77;6.13;;;;;;;7.62;64.07;101405.19;2073944;28;20300;-65
2022/05/02 02:15:47;;;;;;;13.63;6.00;;;;;;;7.63;64.17;101396.13;2081349;28;20288;-66
2022/05/02 02:16:51;;;;;;;12.85;6.32;;;;;;;7.61;64.09;101403.56;2089009;28;20290;-66
2022/05/02 02:17:56;;;;;;;13.18;7.00;;;;;;;7.59;64.31;101398.44;2097070;28;20390;-66
2022/05/02 02:18:58;;;;;;;11.43;6.50;;;;;;;7.57;64.39;101397.88;2096415;28;20282;-65
2022/05/02 02:20:01;;;;;;;13.50;6.55;;;;;;;7.59;64.20;101405.66;2096831;28;20287;-66
2022/05/02 02:21:08;;;;;;;12.88;7.05;;;;;;;7.59;64.23;101401.13;2097005;28;20287;-66
2022/05/02 02:22:16;;;;;;;9.85;5.72;;;;;;;7.57;64.12;101400.56;2089183;28;20276;-66
2022/05/02 02:23:24;;;;;;;13.95;6.55;;;;;;;7.56;64.35;101406.13;2089497;28;20283;-66
2022/05/02 02:24:30;;;;;;;10.68;6.40;;;;;;;7.53;64.25;101401.25;2096190;28;20515;-66
2022/05/02 02:25:33;;;;;;;11.27;6.05;;;;;;;7.51;64.66;101403.38;2096451;28;20286;-66
2022/05/02 02:26:39;;;;;;;12.68;6.65;;;;;;;7.50;64.04;101397.19;2088188;28;20288;-66
2022/05/02 02:27:42;;;;;;;12.45;6.35;;;;;;;7.49;63.97;101398.25;2088106;28;20291;-66
2022/05/02 02:28:45;;;;;;;13.55;6.35;;;;;;;7.50;63.99;101401.72;2088877;28;20295;-66
2022/05/02 02:29:48;;;;;;;10.88;6.00;;;;;;;7.47;64.27;101405.72;2096178;28;20282;-66
2022/05/02 02:30:50;;;;;;;12.90;6.43;;;;;;;7.47;64.63;101403.03;2080009;28;20291;-66
2022/05/02 02:31:52;;;;;;;14.40;6.55;;;;;;;7.48;64.35;101404.66;2072210;28;20292;-66
2022/05/02 02:32:56;;;;;;;10.18;6.03;;;;;;;7.50;64.38;101401.72;2080718;28;20296;-66
2022/05/02 02:33:59;;;;;;;14.68;6.50;;;;;;;7.49;64.55;101400.91;2096797;28;20297;-65
2022/05/02 02:35:02;;;;;;;10.90;6.22;;;;;;;7.50;64.03;101401.72;2096776;28;20286;-66
2022/05/02 02:36:09;;;;;;;13.07;6.68;;;;;;;7.51;64.32;101406.84;2096226;28;20291;-65
2022/05/02 02:37:12;;;;;;;13.55;6.45;;;;;;;7.55;64.49;101399.97;2096493;28;20290;-66
2022/05/02 02:38:14;;;;;;;12.25;6.10;;;;;;;7.56;64.61;101401.59;2087997;28;20303;-65
2022/05/02 02:39:17;;;;;;;12.40;6.28;;;;;;;7.59;64.73;101405.66;2080725;28;20288;-65
2022/05/02 02:40:19;;;;;;;12.70;6.22;;;;;;;7.60;64.90;101407.31;2096779;28;20312;-66
2022/05/02 02:41:22;;;;;;;14.90;6.28;;;;;;;7.61;64.74;101404.38;2088657;28;20283;-65
2022/05/02 02:42:27;;;;;;;11.70;6.25;;;;;;;7.62;64.71;101406.00;2090275;28;20300;-66
2022/05/02 02:43:32;;;;;;;12.70;5.97;;;;;;;7.65;64.94;101407.38;2089910;28;20291;-67
2022/05/02 02:44:39;;;;;;;14.63;6.55;;;;;;;7.65;64.99;101402.03;2081622;28;20311;-66
2022/05/02 02:45:44;;;;;;;12.35;5.68;;;;;;;7.55;65.04;101405.31;2075626;28;20737;-66
2022/05/02 02:46:48;;;;;;;13.55;6.20;;;;;;;7.52;64.81;101403.13;2082364;28;20288;-66
2022/05/02 02:47:53;;;;;;;11.18;6.07;;;;;;;7.51;65.12;101406.84;2074519;28;20297;-66
2022/05/02 02:48:56;;;;;;;10.40;5.95;;;;;;;7.50;64.90;101399.84;2075050;28;20280;-66
2022/05/02 02:50:02;;;;;;;10.65;6.38;;;;;;;7.54;64.42;101409.06;2092302;28;20302;-66
2022/05/02 02:51:05;;;;;;;12.48;6.63;;;;;;;7.48;64.06;101401.97;2098797;28;20300;-65
2022/05/02 02:52:10;;;;;;;11.80;6.38;;;;;;;7.46;63.64;101404.06;2081056;28;20296;-66
2022/05/02 02:53:14;;;;;;;12.05;6.53;;;;;;;7.36;63.89;101401.19;2076138;28;20307;-71
2022/05/02 02:54:22;;;;;;;11.57;6.68;;;;;;;7.31;63.81;101395.72;2082470;28;20682;-74
2022/05/02 02:55:30;;;;;;;12.43;6.10;;;;;;;7.32;63.50;101400.03;2084622;28;20288;-74
2022/05/02 02:56:35;;;;;;;12.52;6.28;;;;;;;7.30;63.54;101402.94;2091751;28;20294;-74
2022/05/02 02:57:40;;;;;;;16.80;7.10;;;;;;;7.30;63.62;101402.94;2090437;28;20283;-74
2022/05/02 02:58:45;;;;;;;15.30;7.05;;;;;;;7.26;63.49;101400.97;2081432;28;20288;-75
2022/05/02 02:59:50;;;;;;;13.07;6.05;;;;;;;7.22;63.64;101403.31;2077643;28;20304;-77
2022/05/02 03:00:58;;;;;;;15.27;7.03;;;;;;;7.19;63.42;101401.13;2090972;28;20696;-77
2022/05/02 03:02:00;;;;;;;12.40;6.15;;;;;;;7.20;63.90;101402.72;2098669;28;20642;-77
2022/05/02 03:03:08;;;;;;;10.93;6.05;;;;;;;7.22;63.59;101406.00;2098380;28;20638;-77
2022/05/02 03:06:55;;;;;;;13.82;6.72;;;;;;;7.17;63.84;101398.66;2098881;28;20734;-75
2022/05/02 03:08:00;;;;;;;14.27;6.95;;;;;;;7.21;63.67;101399.00;2090748;28;20635;-77
2022/05/02 03:09:05;;;;;;;17.65;7.13;;;;;;;7.23;63.99;101398.78;2073447;28;20297;-77
2022/05/02 03:10:10;;;;;;;17.52;7.80;;;;;;;7.26;63.80;101398.31;2067633;28;20297;-76
2022/05/02 03:11:12;;;;;;;19.63;7.75;;;;;;;7.28;63.71;101397.03;2092842;28;20286;-77
2022/05/02 03:12:14;;;;;;;22.83;7.70;;;;;;;7.29;63.79;101400.50;2098230;28;20302;-65
2022/05/02 03:13:16;;;;;;;29.17;7.38;;;;;;;7.31;63.81;101393.03;2097501;28;20291;-66
2022/05/02 03:14:19;;;;;;;28.48;7.65;;;;;;;7.33;63.92;101391.78;2081503;28;20802;-66
2022/05/02 03:15:31;;;;;;;32.85;8.27;;;;;;;7.35;63.92;101394.22;2082248;28;20280;-66
2022/05/02 03:16:36;;;;;;;23.77;7.30;;;;;;;7.39;64.04;101393.50;2097969;28;20662;-66
2022/05/02 03:17:38;;;;;;;20.40;6.68;;;;;;;7.40;64.40;101388.97;2081637;28;20652;-66
2022/05/02 03:18:43;;;;;;;23.90;6.30;;;;;;;7.43;64.82;101391.97;2089843;28;20616;-66
2022/05/02 03:19:50;;;;;;;17.48;6.47;;;;;;;7.48;64.36;101393.16;2098023;28;20294;-66
2022/05/02 03:20:56;;;;;;;14.82;6.72;;;;;;;7.46;64.53;101390.69;2090484;28;20291;-66
2022/05/02 03:22:03;;;;;;;17.48;5.65;;;;;;;7.50;64.56;101391.03;2090599;28;20401;-66
2022/05/02 03:23:07;;;;;;;13.95;6.13;;;;;;;7.57;64.46;101389.84;2098077;28;20306;-66
2022/05/02 03:24:12;;;;;;;16.83;6.78;;;;;;;7.59;64.53;101393.09;2090250;28;20782;-66
2022/05/02 03:25:16;;;;;;;15.57;6.22;;;;;;;7.65;64.15;101383.28;2095431;28;20303;-66
2022/05/02 03:26:18;;;;;;;10.40;6.07;;;;;;;7.69;64.09;101388.97;2098411;28;20766;-66
2022/05/02 03:27:23;;;;;;;15.23;6.45;;;;;;;7.71;64.23;101387.69;2098218;28;20282;-66
2022/05/02 03:28:30;;;;;;;17.80;7.00;;;;;;;7.70;63.75;101390.63;2097219;28;20275;-66
2022/05/02 03:29:37;;;;;;;13.65;7.28;;;;;;;7.72;63.48;101392.00;2082038;28;20788;-66
2022/05/02 03:30:40;;;;;;;15.13;6.55;;;;;;;7.74;63.50;101391.75;2090792;28;20282;-66
2022/05/02 03:31:43;;;;;;;15.10;7.80;;;;;;;7.78;62.90;101395.59;2098508;28;20287;-66
2022/05/02 03:32:45;;;;;;;15.85;7.93;;;;;;;7.77;62.67;101391.28;2081264;28;20292;-65
2022/05/02 03:33:51;;;;;;;14.68;7.97;;;;;;;7.76;62.52;101400.38;2081675;28;20288;-66
2022/05/02 03:34:58;;;;;;;12.85;6.80;;;;;;;7.78;62.61;101390.22;2082413;28;20288;-66
2022/05/02 03:36:02;;;;;;;17.88;7.95;;;;;;;7.81;62.41;101397.78;2073518;28;20800;-66
2022/05/02 03:37:04;;;;;;;17.25;8.18;;;;;;;7.84;62.26;101391.94;2074384;28;20277;-66
2022/05/02 03:38:11;;;;;;;19.67;7.50;;;;;;;7.87;62.11;101391.47;2089730;28;20787;-66
2022/05/02 03:39:19;;;;;;;14.75;8.30;;;;;;;7.92;61.91;101393.44;2090153;28;20291;-66
2022/05/02 03:40:23;;;;;;;17.58;7.43;;;;;;;7.97;61.71;101391.66;2081076;28;20639;-66
2022/05/02 03:41:28;;;;;;;19.00;7.90;;;;;;;8.02;61.71;101390.94;2074687;28;20293;-66
2022/05/02 03:42:30;;;;;;;15.43;7.82;;;;;;;8.09;61.57;101386.25;2089551;28;20282;-65
2022/05/02 03:43:38;;;;;;;15.07;8.27;;;;;;;8.15;61.37;101392.50;2080715;28;20834;-66
2022/05/02 03:44:42;;;;;;;15.95;7.57;;;;;;;8.18;61.02;101397.38;2081886;28;20391;-66
2022/05/02 03:45:44;;;;;;;12.63;7.20;;;;;;;8.22;60.76;101387.78;2073053;28;20300;-66
2022/05/02 03:46:48;;;;;;;14.95;7.65;;;;;;;8.25;60.61;101392.66;2072232;28;20296;-66
2022/05/02 03:47:50;;;;;;;16.95;7.60;;;;;;;8.30;60.84;101396.25;2089906;28;20300;-65
2022/05/02 03:49:00;;;;;;;18.80;8.27;;;;;;;8.33;60.39;101390.41;2089453;28;20299;-65
2022/05/02 03:50:05;;;;;;;15.73;7.78;;;;;;;8.39;59.91;101391.34;2065873;28;20789;-66
2022/05/02 03:51:07;;;;;;;19.30;8.68;;;;;;;8.44;60.29;101390.59;2067809;28;20356;-66
2022/05/02 03:52:09;;;;;;;18.23;8.15;;;;;;;8.50;60.00;101390.44;2081208;28;20636;-65
2022/05/02 03:53:15;;;;;;;20.70;7.45;;;;;;;8.57;59.66;101390.28;2079995;28;20284;-66
2022/05/02 03:54:20;;;;;;;15.82;7.70;;;;;;;8.65;59.51;101392.56;2088993;28;20663;-66
2022/05/02 03:55:23;;;;;;;18.65;8.23;;;;;;;8.69;59.59;101388.31;2089465;28;20291;-66
2022/05/02 03:56:28;;;;;;;18.27;8.45;;;;;;;8.74;59.48;101385.72;2081375;28;20272;-66
2022/05/02 03:57:30;;;;;;;16.83;7.85;;;;;;;8.78;58.72;101384.16;2081954;28;20290;-66
2022/05/02 03:58:34;;;;;;;16.55;8.25;;;;;;;8.86;59.04;101387.47;2065114;28;20301;-66
2022/05/02 03:59:36;;;;;;;23.48;8.25;;;;;;;8.96;58.45;101383.09;2076093;28;20304;-66
2022/05/02 04:00:39;;;;;;;16.90;7.22;;;;;;;9.07;58.34;101388.56;2098056;28;20754;-67
2022/05/02 04:01:42;;;;;;;17.00;8.40;;;;;;;9.14;58.45;101386.53;2089468;28;20299;-66
2022/05/02 04:02:52;;;;;;;15.68;8.00;;;;;;;9.19;58.04;101375.88;2074823;28;20377;-66
2022/05/02 04:03:55;;;;;;;20.50;8.45;;;;;;;9.25;57.85;101373.00;2080878;28;20281;-66
2022/05/02 04:05:00;;;;;;;18.00;7.82;;;;;;;9.34;57.96;101378.75;2090909;28;20298;-67
2022/05/02 04:06:05;;;;;;;15.63;7.53;;;;;;;9.39;57.53;101375.28;2089916;28;20306;-66
2022/05/02 04:07:08;;;;;;;19.48;9.02;;;;;;;9.45;58.13;101385.03;2089751;28;20616;-66
2022/05/02 04:08:15;;;;;;;21.35;8.45;;;;;;;9.53;57.46;101381.91;2097725;28;20362;-67
2022/05/02 04:09:20;;;;;;;23.40;9.02;;;;;;;9.61;57.73;101375.28;2097683;28;20278;-67
2022/05/02 04:10:24;;;;;;;15.75;7.53;;;;;;;9.69;57.29;101375.66;2097857;28;20294;-66
2022/05/02 04:11:25;;;;;;;16.73;7.75;;;;;;;9.80;57.33;101376.56;2089277;28;20330;-68
2022/05/02 04:12:35;;;;;;;17.25;8.02;;;;;;;9.91;56.73;101374.81;2089632;28;20291;-66
2022/05/02 04:13:42;;;;;;;16.58;7.90;;;;;;;10.06;56.65;101384.88;2097302;28;20287;-66
2022/05/02 04:14:44;;;;;;;14.52;7.60;;;;;;;10.19;56.75;101389.84;2097281;28;20313;-66
2022/05/02 04:15:46;;;;;;;16.40;8.65;;;;;;;10.31;56.54;101387.00;2089449;28;20283;-65
2022/05/02 04:16:51;;;;;;;14.02;6.43;;;;;;;10.44;56.22;101386.59;2089691;28;20306;-65
2022/05/02 04:17:58;;;;;;;12.48;6.13;;;;;;;10.57;56.19;101385.34;2097230;28;20298;-65
2022/05/02 04:19:02;;;;;;;16.63;6.28;;;;;;;10.70;55.58;101384.88;2097743;28;20301;-65
2022/05/02 04:20:08;;;;;;;11.90;6.50;;;;;;;10.85;55.98;101390.38;2089066;28;20288;-66
2022/05/02 04:21:12;;;;;;;11.43;5.85;;;;;;;10.98;55.77;101388.28;2090259;28;20284;-66
2022/05/02 04:22:21;;;;;;;16.67;6.70;;;;;;;11.09;55.37;101381.88;2096904;28;20293;-66
2022/05/02 04:23:25;;;;;;;11.93;6.55;;;;;;;11.20;55.33;101382.75;2098393;28;20282;-66
2022/05/02 04:24:30;;;;;;;13.45;6.32;;;;;;;11.33;54.90;101383.06;2098164;28;20286;-66
2022/05/02 04:25:36;;;;;;;20.40;7.32;;;;;;;11.43;54.27;101382.28;2096895;28;20295;-66
2022/05/02 04:26:41;;;;;;;13.13;6.93;;;;;;;11.53;53.98;101382.31;2088478;28;20861;-66
2022/05/02 04:27:46;;;;;;;15.40;7.30;;;;;;;11.63;53.32;101386.94;2080897;28;20288;-66
2022/05/02 04:28:52;;;;;;;15.70;7.28;;;;;;;11.74;53.11;101382.41;2075120;28;20296;-66
2022/05/02 04:29:55;;;;;;;20.20;8.77;;;;;;;11.78;52.69;101384.28;2073112;28;20296;-66
2022/05/02 04:31:00;;;;;;;22.50;9.55;;;;;;;11.83;52.12;101381.59;2073941;28;20304;-66
2022/05/02 04:32:07;;;;;;;21.27;9.50;;;;;;;11.90;51.71;101384.06;2074074;28;20276;-66
2022/05/02 04:33:12;;;;;;;18.48;9.30;;;;;;;12.02;51.33;101381.13;2082344;28;20288;-66
2022/05/02 04:34:16;;;;;;;23.95;9.38;;;;;;;12.09;50.79;101387.06;2080886;28;20292;-66
2022/05/02 04:35:21;;;;;;;22.70;9.07;;;;;;;12.15;50.53;101377.91;2081812;28;20268;-66
2022/05/02 04:36:25;;;;;;;24.42;9.35;;;;;;;12.19;50.03;101378.16;2097712;28;20283;-66
2022/05/02 04:37:28;;;;;;;18.38;9.35;;;;;;;12.26;49.83;101387.63;2093538;28;20299;-66
2022/05/02 04:38:34;;;;;;;19.27;9.35;;;;;;;12.32;49.46;101380.31;2082047;28;20272;-66
2022/05/02 04:39:36;;;;;;;20.70;9.15;;;;;;;12.39;49.16;101380.06;2091506;28;20290;-66
2022/05/02 04:40:40;;;;;;;20.98;8.75;;;;;;;12.47;49.35;101384.91;2089260;28;20636;-65
2022/05/02 04:41:45;;;;;;;18.00;9.25;;;;;;;12.50;48.92;101384.38;2089714;28;20275;-65
2022/05/02 04:42:46;;;;;;;16.40;8.23;;;;;;;12.58;49.16;101393.78;2089066;28;20302;-66
2022/05/02 04:43:51;;;;;;;16.23;8.10;;;;;;;12.60;48.74;101383.56;2072734;28;20293;-65
2022/05/02 04:44:55;;;;;;;16.73;8.60;;;;;;;12.65;49.03;101386.25;2074307;28;20800;-66
2022/05/02 04:46:03;;;;;;;19.10;7.95;;;;;;;12.73;48.59;101393.78;2090001;28;20751;-66
2022/05/02 04:47:07;;;;;;;15.50;7.95;;;;;;;12.86;48.43;101390.53;2097905;28;20298;-66
2022/05/02 04:48:10;;;;;;;17.17;8.15;;;;;;;13.04;48.29;101389.13;2096982;28;20275;-66
2022/05/02 04:49:17;;;;;;;14.70;8.00;;;;;;;13.22;48.18;101388.53;2073759;28;20273;-66
2022/05/02 04:50:24;;;;;;;17.77;8.55;;;;;;;13.35;47.58;101391.75;2081338;28;20292;-65
2022/05/02 04:51:29;;;;;;;18.83;8.73;;;;;;;13.49;47.63;101383.84;2083234;28;20300;-65
2022/05/02 04:52:35;;;;;;;16.77;8.32;;;;;;;13.68;47.45;101391.06;2083768;28;20686;-65
2022/05/02 04:53:40;;;;;;;17.88;8.82;;;;;;;13.88;46.98;101386.63;2081599;28;20041;-65
2022/05/02 04:54:44;;;;;;;19.13;8.45;;;;;;;14.04;46.76;101390.03;2091321;28;20030;-65
2022/05/02 04:55:49;;;;;;;17.80;8.10;;;;;;;14.19;46.33;101391.81;2097604;28;20274;-66
2022/05/02 04:56:52;;;;;;;14.93;7.80;;;;;;;14.37;45.97;101393.81;2090747;28;20295;-66
2022/05/02 04:57:55;;;;;;;15.80;8.18;;;;;;;14.56;45.96;101388.53;2098856;28;20442;-65
2022/05/02 04:58:59;;;;;;;17.48;7.95;;;;;;;14.78;45.45;101391.56;2099276;28;20301;-66
2022/05/02 05:00:03;;;;;;;15.55;7.30;;;;;;;15.00;45.08;101391.06;2097340;28;20290;-65
2022/05/02 05:01:08;;;;;;;15.55;7.47;;;;;;;15.18;44.78;101386.00;2098310;28;20287;-65
2022/05/02 05:02:12;;;;;;;13.93;7.38;;;;;;;15.35;44.99;101386.34;2097486;28;20522;-65
2022/05/02 05:03:14;;;;;;;17.92;7.03;;;;;;;15.56;44.65;101386.09;2088118;28;20044;-65
2022/05/02 05:04:18;;;;;;;11.73;6.20;;;;;;;15.78;44.28;101391.75;2080619;28;20033;-64
2022/05/02 05:05:22;;;;;;;12.43;6.07;;;;;;;15.92;43.26;101384.53;2089701;28;20040;-65
2022/05/02 05:06:25;;;;;;;10.98;6.07;;;;;;;16.09;42.81;101385.91;2089134;28;20057;-65